createdAt,value
2022-12-19T00:00:53.109Z,105.00
2022-12-19T00:11:08.068Z,103.20
2022-12-19T00:21:23.172Z,117.70
2022-12-19T00:31:38.194Z,116.60
2022-12-19T00:41:51.126Z,111.00
2022-12-19T00:52:05.079Z,98.90
2022-12-19T01:02:18.281Z,95.60
2022-12-19T01:12:50.080Z,94.90
2022-12-19T01:23:03.159Z,91.30
2022-12-19T01:33:18.113Z,91.40
2022-12-19T01:43:32.146Z,84.80
2022-12-19T01:53:52.120Z,90.90
2022-12-19T02:04:06.134Z,87.70
2022-12-19T02:14:19.100Z,90.20
2022-12-19T02:25:08.172Z,89.10
2022-12-19T02:35:40.116Z,91.80
2022-12-19T02:45:53.236Z,86.90
2022-12-19T02:56:13.153Z,89.50
2022-12-19T03:06:34.213Z,90.60
2022-12-19T03:16:47.204Z,88.90
2022-12-19T03:27:03.230Z,82.50
2022-12-19T03:37:22.187Z,87.40
2022-12-19T03:47:56.224Z,90.00
2022-12-19T03:58:14.218Z,86.50
2022-12-19T04:08:26.238Z,83.75
2022-12-19T04:18:39.226Z,81.00
2022-12-19T04:29:04.272Z,85.40
2022-12-19T04:39:17.214Z,92.10
2022-12-19T04:49:30.273Z,90.00
2022-12-19T04:59:43.217Z,86.90
2022-12-19T05:09:56.276Z,90.80
2022-12-19T05:20:16.248Z,88.40
2022-12-19T05:30:31.294Z,92.50
2022-12-19T05:40:44.253Z,87.20
2022-12-19T05:50:58.283Z,89.10
2022-12-19T06:01:36.307Z,93.80
2022-12-19T06:11:49.348Z,98.20
2022-12-19T06:22:02.262Z,92.90
2022-12-19T06:32:15.311Z,95.30
2022-12-19T06:42:31.257Z,94.90
2022-12-19T06:52:44.311Z,99.30
2022-12-19T07:02:58.363Z,142.10
2022-12-19T07:13:12.304Z,97.50
2022-12-19T07:23:26.320Z,95.40
2022-12-19T07:33:39.314Z,92.20
2022-12-19T07:43:53.330Z,92.00
2022-12-19T07:54:06.321Z,99.00
2022-12-19T08:04:19.347Z,86.80
2022-12-19T08:14:32.320Z,82.70
2022-12-19T08:24:45.379Z,91.10
2022-12-19T08:34:58.341Z,83.80
2022-12-19T08:45:11.354Z,81.90
2022-12-19T08:55:24.359Z,86.70
2022-12-19T09:06:04.030Z,88.10
2022-12-19T09:16:28.456Z,87.10
2022-12-19T09:26:41.377Z,84.00
2022-12-19T09:36:54.386Z,85.40
2022-12-19T09:47:09.377Z,88.60
2022-12-19T09:57:32.390Z,89.60
2022-12-19T10:08:07.864Z,93.00
2022-12-19T10:18:38.377Z,97.00
2022-12-19T10:29:09.423Z,101.90
2022-12-19T10:39:31.390Z,106.10
2022-12-19T10:49:42.419Z,105.95
2022-12-19T11:00:08.418Z,104.60
2022-12-19T11:12:25.936Z,100.50
2022-12-19T11:29:55.167Z,104.20
2022-12-19T11:32:48.856Z,114.40
2022-12-19T11:43:46.062Z,122.00
2022-12-19T11:54:04.466Z,110.90
2022-12-19T12:04:20.485Z,104.00
2022-12-19T12:27:50.095Z,102.10
2022-12-19T12:31:47.318Z,105.80
2022-12-19T12:47:32.457Z,120.10
2022-12-19T12:57:46.509Z,123.50
2022-12-19T13:08:01.461Z,117.80
2022-12-19T13:18:37.542Z,128.20
2022-12-19T13:28:56.504Z,136.80
2022-12-19T13:40:00.880Z,140.40
2022-12-19T13:49:42.545Z,138.60
2022-12-19T13:59:59.692Z,146.70
2022-12-19T14:11:32.564Z,142.00
2022-12-19T14:22:07.203Z,124.15
2022-12-19T14:31:31.603Z,126.50
2022-12-19T14:42:10.525Z,125.00
2022-12-19T14:54:28.466Z,130.50
2022-12-19T15:03:37.792Z,134.00
2022-12-19T15:14:54.921Z,126.70
2022-12-19T15:24:32.583Z,125.60
2022-12-19T15:34:51.679Z,158.20
2022-12-19T15:45:07.571Z,123.30
2022-12-19T15:55:24.579Z,143.10
2022-12-19T16:05:37.615Z,144.70
2022-12-19T16:15:50.595Z,138.70
2022-12-19T16:26:03.636Z,140.60
2022-12-19T16:36:17.599Z,138.30
2022-12-19T16:46:38.685Z,162.50
2022-12-19T16:56:57.571Z,142.00
2022-12-19T17:07:10.637Z,144.90
2022-12-19T17:17:23.597Z,220.90
2022-12-19T17:27:36.643Z,123.80
2022-12-19T17:37:49.612Z,78.00
2022-12-19T17:48:03.289Z,66.00
2022-12-19T17:58:17.763Z,56.90
2022-12-19T18:08:40.653Z,60.20
2022-12-19T18:18:53.644Z,61.60
2022-12-19T18:29:06.730Z,56.10
2022-12-19T18:39:31.628Z,59.20
2022-12-19T18:49:45.711Z,57.00
2022-12-19T18:59:58.675Z,56.50
2022-12-19T19:10:23.702Z,55.70
2022-12-19T19:20:45.646Z,56.20
2022-12-19T19:30:58.752Z,53.70
2022-12-19T19:41:11.683Z,50.70
2022-12-19T19:51:24.757Z,45.70
2022-12-19T20:01:36.833Z,49.65
2022-12-19T20:11:56.736Z,52.50
2022-12-19T20:22:09.729Z,53.00
2022-12-19T20:32:22.744Z,54.20
2022-12-19T20:42:36.709Z,47.40
2022-12-19T20:52:49.752Z,47.20
2022-12-19T21:13:36.776Z,49.10
2022-12-19T21:23:49.728Z,46.40
2022-12-19T21:34:07.781Z,49.10
2022-12-19T21:44:20.760Z,44.90
2022-12-19T21:54:33.790Z,47.40
2022-12-19T22:04:46.768Z,46.50
2022-12-19T22:14:59.803Z,43.10
2022-12-19T22:25:12.775Z,48.70
2022-12-19T22:35:25.807Z,46.30
2022-12-19T22:45:38.821Z,46.20
2022-12-19T22:55:51.828Z,43.60
2022-12-19T23:06:04.781Z,42.80
2022-12-19T23:16:17.890Z,39.80
2022-12-19T23:26:33.794Z,43.20
2022-12-19T23:47:19.854Z,40.00
2022-12-19T23:57:32.830Z,42.70
